Time;durP1;ratioP1;P1;durP2;ratioP2;P2;SDS_P1;SDS_P2;PMS_P1;PMS_P2;Temp;Humidity;BMP_temperature;BMP_pressure;BME280_temperature;BME280_humidity;BME280_pressure;Samples;Min_cycle;Max_cycle;Signal;HPM_P1;HPM_P2
2023/05/22 00:02:21;;;;;;;9.23;5.77;;;;;;;16.33;85.83;94620.53;5015985;28;20449;-81
2023/05/22 00:04:48;;;;;;;7.60;5.60;;;;;;;16.33;85.97;94628.50;5016518;28;20775;-82
2023/05/22 00:07:16;;;;;;;8.57;6.30;;;;;;;16.31;85.92;94619.91;5015511;28;20456;-82
2023/05/22 00:09:43;;;;;;;7.53;5.60;;;;;;;16.33;86.66;94620.53;4997291;28;20481;-82
2023/05/22 00:12:09;;;;;;;9.43;6.00;;;;;;;16.40;85.72;94629.44;5015210;28;20840;-82
2023/05/22 00:14:36;;;;;;;7.33;6.23;;;;;;;16.39;85.35;94623.31;5015218;28;20966;-82
2023/05/22 00:17:03;;;;;;;7.50;6.60;;;;;;;16.41;86.04;94626.63;5015554;28;20504;-82
2023/05/22 00:19:30;;;;;;;6.47;5.90;;;;;;;16.41;85.33;94620.50;5015913;28;20444;-82
2023/05/22 00:21:56;;;;;;;8.60;6.60;;;;;;;16.41;85.78;94620.50;5015828;28;20443;-82
2023/05/22 00:24:25;;;;;;;9.13;6.30;;;;;;;16.39;85.52;94612.72;5015364;28;20538;-82
2023/05/22 00:26:51;;;;;;;6.60;5.90;;;;;;;16.41;86.32;94618.69;5015628;28;20457;-81
2023/05/22 00:29:18;;;;;;;7.30;5.53;;;;;;;16.43;85.67;94619.31;5015836;28;20506;-82
2023/05/22 00:31:45;;;;;;;10.73;5.80;;;;;;;16.43;85.53;94614.03;5015466;28;20966;-82
2023/05/22 00:34:12;;;;;;;8.43;5.63;;;;;;;16.47;85.08;94613.69;5015201;28;20507;-82
2023/05/22 00:36:38;;;;;;;7.80;5.97;;;;;;;16.48;85.74;94607.38;5015181;28;20451;-82
2023/05/22 00:39:05;;;;;;;7.23;6.17;;;;;;;16.51;85.51;94613.19;4997073;28;20504;-82
2023/05/22 00:41:33;;;;;;;7.83;6.50;;;;;;;16.51;84.69;94620.31;5015376;28;20451;-82
2023/05/22 00:44:01;;;;;;;9.40;5.93;;;;;;;16.47;84.83;94614.50;5015201;28;20534;-82
2023/05/22 00:46:28;;;;;;;6.50;5.53;;;;;;;16.49;84.78;94623.13;5015490;28;20477;-82
2023/05/22 00:48:55;;;;;;;7.50;5.77;;;;;;;16.49;84.10;94607.25;5015045;28;20454;-82
2023/05/22 00:51:22;;;;;;;7.40;5.67;;;;;;;16.51;85.34;94605.25;5012908;28;20495;-81
2023/05/22 00:53:49;;;;;;;8.90;5.67;;;;;;;16.51;84.89;94607.06;5014005;28;20439;-82
2023/05/22 00:56:17;;;;;;;7.40;5.60;;;;;;;16.51;84.69;94620.31;5014484;28;20494;-81
2023/05/22 00:58:45;;;;;;;7.27;5.70;;;;;;;16.47;84.70;94622.47;5014849;28;20454;-80
2023/05/22 01:01:12;;;;;;;7.80;7.10;;;;;;;16.43;84.72;94618.50;5014852;28;20843;-81
2023/05/22 01:03:43;;;;;;;7.63;5.87;;;;;;;16.42;84.87;94617.69;5014796;28;20450;-81
2023/05/22 01:06:10;;;;;;;7.70;5.63;;;;;;;16.43;84.91;94614.03;5014647;28;20443;-82
2023/05/22 01:08:37;;;;;;;6.03;5.10;;;;;;;16.44;85.04;94617.50;5014651;28;20817;-81
2023/05/22 01:11:09;;;;;;;10.33;6.07;;;;;;;16.45;85.06;94619.16;5014854;28;20509;-83
2023/05/22 01:13:46;;;;;;;7.23;5.20;;;;;;;16.47;85.43;94618.97;5014976;28;20480;-82
2023/05/22 01:16:24;;;;;;;7.63;5.70;;;;;;;16.45;85.47;94616.50;5014932;28;20505;-84
2023/05/22 01:19:01;;;;;;;7.27;5.50;;;;;;;16.49;86.25;94622.31;5014772;28;20541;-83
2023/05/22 01:21:37;;;;;;;7.97;5.70;;;;;;;16.49;85.34;94617.84;4980059;28;20449;-83
2023/05/22 01:24:40;;;;;;;9.13;6.00;;;;;;;16.50;86.11;94610.72;5014126;28;20525;-83
2023/05/22 01:27:38;;;;;;;6.70;5.87;;;;;;;16.45;85.80;94605.91;5014764;28;20543;-83
2023/05/22 01:30:24;;;;;;;6.80;5.70;;;;;;;16.41;85.43;94608.09;4973126;28;20495;-82
2023/05/22 01:32:57;;;;;;;12.00;6.27;;;;;;;16.37;86.11;94609.44;4973005;28;20943;-82
2023/05/22 01:35:25;;;;;;;6.90;6.20;;;;;;;16.37;86.47;94605.97;4941261;28;20444;-83
2023/05/22 01:37:53;;;;;;;8.30;6.10;;;;;;;16.35;86.32;94605.31;4973202;28;20866;-81
2023/05/22 01:40:21;;;;;;;6.77;6.07;;;;;;;16.27;86.31;94605.34;4973057;28;20519;-81
2023/05/22 01:42:48;;;;;;;6.07;5.57;;;;;;;16.26;86.53;94611.66;4972967;28;20519;-80
2023/05/22 01:45:14;;;;;;;6.47;5.70;;;;;;;16.24;86.60;94605.69;4973231;28;20452;-81
2023/05/22 01:47:41;;;;;;;8.43;6.30;;;;;;;16.22;87.22;94599.75;4972629;28;21007;-81
2023/05/22 01:50:10;;;;;;;7.00;5.73;;;;;;;16.24;86.26;94600.41;4972938;28;20495;-81
2023/05/22 01:52:47;;;;;;;8.80;7.00;;;;;;;16.24;85.64;94603.88;4956686;28;20973;-80
2023/05/22 01:55:19;;;;;;;9.63;6.00;;;;;;;16.25;86.13;94604.69;4972372;28;20458;-80
2023/05/22 01:57:52;;;;;;;9.00;6.17;;;;;;;16.24;85.47;94603.88;4972171;28;20451;-80
2023/05/22 02:00:22;;;;;;;9.23;6.13;;;;;;;16.20;85.66;94602.56;4971681;28;20455;-80
2023/05/22 02:02:53;;;;;;;9.30;6.50;;;;;;;16.20;86.25;94607.03;4971879;28;20992;-80
2023/05/22 02:05:23;;;;;;;11.43;6.20;;;;;;;16.12;86.93;94599.94;4958145;28;20441;-80
2023/05/22 02:07:50;;;;;;;9.37;6.13;;;;;;;16.09;87.73;94601.09;4963923;28;20466;-82
2023/05/22 02:10:18;;;;;;;8.90;5.67;;;;;;;16.06;88.37;94596.16;4994237;28;20591;-82
2023/05/22 02:12:45;;;;;;;8.17;5.30;;;;;;;16.03;88.57;94604.44;4993964;28;20501;-81
2023/05/22 02:15:12;;;;;;;10.27;7.00;;;;;;;15.98;87.55;94596.19;4994066;28;20529;-82
2023/05/22 02:17:40;;;;;;;7.73;6.70;;;;;;;15.94;89.15;94599.34;4994519;28;20449;-81
2023/05/22 02:20:13;;;;;;;9.20;7.30;;;;;;;15.93;90.09;94603.81;4994242;28;20460;-81
2023/05/22 02:22:43;;;;;;;8.00;6.00;;;;;;;16.05;100.00;94599.78;4976516;28;20486;-84
2023/05/22 02:25:13;;;;;;;13.40;7.17;;;;;;;16.02;100.00;94600.13;4994013;28;20534;-80
2023/05/22 02:27:41;;;;;;;11.37;7.30;;;;;;;16.04;99.71;94595.50;4994026;28;20444;-82
2023/05/22 02:30:09;;;;;;;24.20;9.57;;;;;;;16.22;100.00;94605.03;4993732;28;20474;-83
2023/05/22 02:32:36;;;;;;;10.83;6.30;;;;;;;16.13;100.00;94606.06;4994442;28;20449;-81
2023/05/22 02:35:03;;;;;;;12.90;7.33;;;;;;;16.06;96.19;94612.03;4992680;28;20503;-81
2023/05/22 02:37:30;;;;;;;13.97;6.83;;;;;;;16.03;98.49;94615.03;4993970;28;20448;-80
2023/05/22 02:39:59;;;;;;;16.20;7.07;;;;;;;15.98;100.00;94604.13;4993780;28;20450;-80
2023/05/22 02:42:26;;;;;;;13.00;7.87;;;;;;;15.92;99.62;94604.81;4993640;28;20516;-81
2023/05/22 02:44:52;;;;;;;8.80;6.33;;;;;;;15.89;98.72;94604.28;5000400;28;20450;-81
2023/05/22 02:47:19;;;;;;;8.40;7.00;;;;;;;15.86;96.46;94605.47;4994390;28;20434;-81
2023/05/22 02:49:46;;;;;;;17.93;7.23;;;;;;;15.76;96.73;94594.25;4975534;28;20448;-81
2023/05/22 02:52:13;;;;;;;11.10;7.20;;;;;;;15.72;97.48;94595.59;5013549;28;20496;-81
2023/05/22 02:54:39;;;;;;;16.30;7.30;;;;;;;15.71;98.23;94594.75;5013605;28;20502;-81
2023/05/22 02:57:08;;;;;;;8.83;6.00;;;;;;;15.60;97.38;94584.50;5013818;28;20454;-81
2023/05/22 02:59:35;;;;;;;8.00;6.70;;;;;;;15.60;96.60;94594.28;5011984;28;20474;-81
2023/05/22 03:02:02;;;;;;;12.90;6.07;;;;;;;15.58;96.77;94589.16;4977531;28;20453;-81
2023/05/22 03:04:29;;;;;;;12.43;6.33;;;;;;;15.52;94.13;94594.25;5011754;28;20891;-81
2023/05/22 03:06:56;;;;;;;14.90;7.40;;;;;;;15.53;95.14;94588.78;5012318;28;20542;-81
2023/05/22 03:09:22;;;;;;;10.13;5.50;;;;;;;15.45;94.60;94592.28;5011733;28;20506;-81
2023/05/22 03:11:49;;;;;;;7.90;6.50;;;;;;;15.47;96.86;94594.75;5012055;28;20534;-81
2023/05/22 03:14:18;;;;;;;13.10;6.87;;;;;;;15.47;97.88;94594.75;5011859;28;20443;-81
2023/05/22 03:16:45;;;;;;;14.73;7.43;;;;;;;15.61;96.37;94604.72;5011807;28;20975;-81
2023/05/22 03:19:12;;;;;;;8.33;6.93;;;;;;;15.72;96.64;94599.06;5014336;28;20464;-81
2023/05/22 03:21:40;;;;;;;8.97;5.60;;;;;;;15.78;95.72;94598.38;4980969;28;20527;-81
2023/05/22 03:24:08;;;;;;;8.00;6.83;;;;;;;15.79;94.41;94594.72;5015582;28;20828;-81
2023/05/22 03:26:34;;;;;;;10.80;5.80;;;;;;;15.86;93.79;94600.16;5015396;28;20451;-81
2023/05/22 03:29:01;;;;;;;9.30;6.13;;;;;;;15.84;92.72;94602.16;4980745;28;20508;-81
2023/05/22 03:31:31;;;;;;;7.60;5.87;;;;;;;15.75;93.38;94604.00;4996845;28;21014;-81
2023/05/22 03:33:58;;;;;;;11.20;6.07;;;;;;;15.70;94.67;94605.50;4997164;28;20800;-81
2023/05/22 03:36:25;;;;;;;8.50;6.20;;;;;;;15.66;94.66;94594.44;5014981;28;20933;-81
2023/05/22 03:38:52;;;;;;;8.47;6.33;;;;;;;15.72;94.07;94599.06;5015070;28;20505;-81
2023/05/22 03:41:19;;;;;;;8.13;5.77;;;;;;;15.70;94.21;94602.88;5015368;28;20488;-81
2023/05/22 03:43:46;;;;;;;8.47;6.67;;;;;;;15.77;96.03;94606.47;5015232;28;20438;-80
2023/05/22 03:46:13;;;;;;;7.70;6.13;;;;;;;15.85;94.44;94602.97;5015143;28;20444;-81
2023/05/22 03:48:41;;;;;;;12.70;6.00;;;;;;;15.93;94.93;94601.16;4996662;28;20453;-81
2023/05/22 03:51:07;;;;;;;12.27;6.97;;;;;;;16.05;93.87;94606.91;5013661;28;20537;-81
2023/05/22 03:53:34;;;;;;;6.30;5.77;;;;;;;16.16;91.24;94611.00;5015013;28;21109;-81
2023/05/22 03:56:01;;;;;;;7.03;5.87;;;;;;;16.17;90.03;94612.66;5014895;28;20455;-81
2023/05/22 03:58:28;;;;;;;11.57;5.90;;;;;;;16.26;90.41;94616.94;5011191;28;20507;-81
2023/05/22 04:00:57;;;;;;;8.00;5.77;;;;;;;16.35;89.84;94615.91;5014580;28;20454;-81
2023/05/22 04:03:24;;;;;;;10.77;6.47;;;;;;;16.43;90.21;94623.81;5013331;28;20470;-81
2023/05/22 04:05:52;;;;;;;8.40;6.47;;;;;;;16.66;89.60;94624.72;5014034;28;20450;-81
2023/05/22 04:08:19;;;;;;;11.77;6.70;;;;;;;16.89;86.05;94627.41;5007752;28;20962;-81
2023/05/22 04:10:47;;;;;;;12.53;7.27;;;;;;;17.17;85.23;94627.72;5014316;28;20506;-81
2023/05/22 04:13:15;;;;;;;15.57;7.70;;;;;;;17.52;87.67;94620.16;5013316;28;20460;-80
2023/05/22 04:15:42;;;;;;;12.90;7.17;;;;;;;17.79;87.14;94616.97;5014229;28;20850;-81
2023/05/22 04:18:09;;;;;;;10.07;5.60;;;;;;;18.08;88.38;94610.03;5014784;28;20450;-81
2023/05/22 04:20:35;;;;;;;9.40;6.63;;;;;;;18.29;82.08;94625.25;5014014;28;20993;-81
2023/05/22 04:23:04;;;;;;;6.80;6.07;;;;;;;18.38;81.93;94619.63;5014180;28;20986;-81
2023/05/22 04:25:33;;;;;;;7.73;5.70;;;;;;;18.40;79.20;94620.28;5014162;28;20453;-81
2023/05/22 04:28:02;;;;;;;8.70;5.30;;;;;;;18.37;77.11;94628.63;5014476;28;20881;-81
2023/05/22 04:30:28;;;;;;;10.57;6.60;;;;;;;18.27;79.51;94628.09;5013751;28;20457;-81
2023/05/22 04:32:56;;;;;;;8.33;5.77;;;;;;;18.24;80.87;94634.59;5013879;28;20896;-81
2023/05/22 04:35:22;;;;;;;15.00;6.00;;;;;;;18.35;80.99;94627.16;5014335;28;20536;-81
2023/05/22 04:37:49;;;;;;;8.90;5.57;;;;;;;18.68;81.57;94622.28;5014023;28;20508;-81
2023/05/22 04:40:17;;;;;;;7.30;5.70;;;;;;;19.19;82.34;94634.53;5014200;28;20571;-81
2023/05/22 04:42:44;;;;;;;11.27;7.93;;;;;;;19.71;78.59;94627.28;5012774;28;20462;-81
2023/05/22 04:45:12;;;;;;;5.70;5.20;;;;;;;20.27;73.01;94635.25;5013603;28;20925;-81
2023/05/22 04:47:40;;;;;;;8.77;5.83;;;;;;;20.86;71.98;94635.59;5013564;28;20479;-81
2023/05/22 04:50:08;;;;;;;10.83;6.60;;;;;;;21.42;69.25;94639.91;4995650;28;20448;-81
2023/05/22 04:52:34;;;;;;;8.90;6.00;;;;;;;21.92;66.85;94631.28;5013820;28;20486;-81
2023/05/22 04:55:01;;;;;;;6.90;5.60;;;;;;;22.38;62.96;94630.47;5013833;28;20441;-81
2023/05/22 04:57:29;;;;;;;5.97;5.27;;;;;;;22.82;63.26;94631.56;5013630;28;20451;-81
2023/05/22 04:59:56;;;;;;;10.63;5.60;;;;;;;23.22;61.92;94626.06;5013550;28;20451;-82
2023/05/22 05:02:23;;;;;;;6.43;5.00;;;;;;;23.63;60.00;94622.94;5013883;28;20539;-81
2023/05/22 05:04:51;;;;;;;10.00;5.30;;;;;;;24.00;56.72;94624.75;5013766;28;20509;-81
2023/05/22 05:07:18;;;;;;;8.20;5.23;;;;;;;24.21;56.01;94615.47;5014074;28;20456;-81
2023/05/22 05:09:45;;;;;;;9.00;5.10;;;;;;;24.49;56.32;94622.22;4994813;28;20457;-81
2023/05/22 05:12:12;;;;;;;7.63;5.70;;;;;;;24.84;52.85;94627.81;5013403;28;20482;-81
2023/05/22 05:14:40;;;;;;;7.50;5.10;;;;;;;25.09;52.76;94625.91;4995124;28;20462;-81
2023/05/22 05:17:07;;;;;;;7.50;5.20;;;;;;;25.30;50.38;94627.28;5013741;28;20506;-81
2023/05/22 05:19:34;;;;;;;6.40;5.07;;;;;;;25.43;49.36;94621.72;5013854;28;20447;-81
2023/05/22 05:22:01;;;;;;;5.60;5.10;;;;;;;25.57;48.67;94630.44;5013362;28;20985;-81
2023/05/22 05:24:28;;;;;;;6.17;5.00;;;;;;;25.74;47.70;94617.19;5013534;28;20558;-81
2023/05/22 05:26:54;;;;;;;7.87;6.00;;;;;;;25.73;47.58;94613.66;5013519;28;20502;-81
2023/05/22 05:29:21;;;;;;;8.13;5.03;;;;;;;25.71;47.97;94620.31;5013188;28;20539;-81
2023/05/22 05:31:49;;;;;;;5.53;5.03;;;;;;;25.85;47.63;94624.44;5013156;28;21072;-81
2023/05/22 05:34:16;;;;;;;9.30;5.50;;;;;;;25.85;47.31;94616.38;4994574;28;20790;-81
2023/05/22 05:36:43;;;;;;;5.73;5.10;;;;;;;25.49;47.56;94628.88;5013033;28;20448;-81
2023/05/22 05:39:09;;;;;;;16.33;6.43;;;;;;;25.17;48.05;94625.59;4994742;28;21004;-81
2023/05/22 05:41:36;;;;;;;10.47;5.73;;;;;;;25.22;49.29;94631.13;5012274;28;20490;-81
2023/05/22 05:44:03;;;;;;;6.10;4.77;;;;;;;24.92;47.28;94627.53;5012802;28;20497;-81
2023/05/22 05:46:30;;;;;;;8.47;5.47;;;;;;;24.13;48.38;94617.59;5013134;28;20458;-81
2023/05/22 05:48:58;;;;;;;8.33;5.40;;;;;;;24.09;49.56;94628.78;5012941;28;20500;-81
2023/05/22 05:51:25;;;;;;;8.97;5.40;;;;;;;24.44;48.19;94625.59;5012742;28;20460;-81
2023/05/22 05:53:52;;;;;;;10.17;5.83;;;;;;;24.88;48.01;94629.84;5012650;28;20508;-81
2023/05/22 05:56:18;;;;;;;9.10;5.37;;;;;;;25.22;46.13;94628.44;5012744;28;20447;-81
2023/05/22 05:58:45;;;;;;;5.67;4.77;;;;;;;24.57;45.77;94630.81;5013052;28;20517;-81
2023/05/22 06:01:13;;;;;;;13.57;4.80;;;;;;;24.55;46.29;94632.88;5012623;28;20845;-81
2023/05/22 06:03:40;;;;;;;12.80;5.67;;;;;;;24.76;46.74;94633.50;5012853;28;20453;-81
2023/05/22 06:06:08;;;;;;;8.23;6.10;;;;;;;25.17;46.90;94628.28;5012454;28;20529;-81
2023/05/22 06:08:34;;;;;;;8.03;4.60;;;;;;;25.40;43.65;94630.22;5012272;28;20938;-82
2023/05/22 06:11:02;;;;;;;10.03;4.90;;;;;;;25.51;44.72;94626.78;5012204;28;20501;-81
2023/05/22 06:13:28;;;;;;;8.80;4.90;;;;;;;25.62;44.03;94634.06;5012494;28;20577;-82
2023/05/22 06:15:55;;;;;;;7.43;5.10;;;;;;;25.87;44.67;94625.03;5012270;28;20939;-81
2023/05/22 06:18:24;;;;;;;6.27;5.67;;;;;;;26.27;44.29;94624.38;4993946;28;20857;-81
2023/05/22 06:20:51;;;;;;;6.17;3.90;;;;;;;26.70;42.52;94629.44;5012393;28;20439;-81
2023/05/22 06:23:20;;;;;;;8.50;4.80;;;;;;;27.04;41.69;94628.56;5011921;28;20546;-81
2023/05/22 06:25:47;;;;;;;5.00;4.47;;;;;;;27.41;41.99;94620.13;5012264;28;20454;-81
2023/05/22 06:28:14;;;;;;;6.80;4.60;;;;;;;27.49;38.96;94621.63;5012454;28;20451;-81
2023/05/22 06:30:40;;;;;;;5.23;4.40;;;;;;;27.54;39.41;94629.81;5012093;28;20451;-81
2023/05/22 06:33:07;;;;;;;4.10;3.70;;;;;;;27.71;40.16;94626.09;4993949;28;20491;-81
2023/05/22 06:35:34;;;;;;;6.13;5.10;;;;;;;27.64;38.84;94630.84;4994024;28;20527;-81
2023/05/22 06:38:01;;;;;;;6.60;4.77;;;;;;;26.61;39.77;94630.84;5012185;28;20443;-81
2023/05/22 06:40:29;;;;;;;13.00;4.40;;;;;;;26.25;42.06;94622.75;5012205;28;21058;-81
2023/05/22 06:42:57;;;;;;;6.00;4.60;;;;;;;25.82;41.93;94624.91;4993660;28;20435;-82
2023/05/22 06:45:24;;;;;;;8.73;5.03;;;;;;;26.14;42.80;94625.44;5012577;28;20497;-81
2023/05/22 06:47:52;;;;;;;5.70;4.43;;;;;;;26.49;43.28;94620.91;4993888;28;20882;-81
2023/05/22 06:50:19;;;;;;;6.50;5.90;;;;;;;26.57;42.09;94626.97;5011744;28;20455;-81
2023/05/22 06:52:46;;;;;;;5.57;4.70;;;;;;;25.52;43.75;94625.75;5013820;28;20486;-81
2023/05/22 06:55:13;;;;;;;6.07;4.53;;;;;;;24.45;44.84;94626.41;5016256;28;20938;-81
2023/05/22 06:57:41;;;;;;;6.53;5.03;;;;;;;24.08;47.08;94624.44;4997675;28;20455;-81
2023/05/22 07:00:11;;;;;;;5.67;4.83;;;;;;;23.71;48.41;94614.66;5015923;28;20504;-81
2023/05/22 07:02:38;;;;;;;9.27;4.83;;;;;;;23.38;47.97;94625.53;5016390;28;20461;-81
2023/05/22 07:05:05;;;;;;;15.97;5.50;;;;;;;23.72;49.08;94622.47;4997641;28;20448;-81
2023/05/22 07:07:32;;;;;;;6.07;5.40;;;;;;;23.99;48.21;94622.25;4997233;28;20435;-81
2023/05/22 07:09:59;;;;;;;6.40;5.70;;;;;;;24.42;48.60;94625.00;5015808;28;20458;-81
2023/05/22 07:12:27;;;;;;;8.77;4.43;;;;;;;24.89;47.81;94625.31;5015577;28;20487;-81
2023/05/22 07:14:55;;;;;;;10.53;5.30;;;;;;;25.29;46.01;94626.47;5015789;28;20451;-81
2023/05/22 07:17:22;;;;;;;9.73;5.47;;;;;;;25.53;45.49;94616.63;5015763;28;20450;-82
2023/05/22 07:19:49;;;;;;;7.97;5.50;;;;;;;25.50;44.57;94619.78;5015906;28;20456;-82
2023/05/22 07:22:16;;;;;;;7.30;4.37;;;;;;;25.52;44.70;94622.25;5015492;28;20834;-81
2023/05/22 07:24:43;;;;;;;9.90;5.53;;;;;;;25.50;44.22;94618.97;5015392;28;20447;-81
2023/05/22 07:27:10;;;;;;;6.13;4.50;;;;;;;25.16;43.79;94621.28;5015664;28;20453;-81
2023/05/22 07:29:37;;;;;;;6.67;4.33;;;;;;;24.97;44.56;94619.63;5015428;28;20477;-81
2023/05/22 07:32:05;;;;;;;8.13;4.00;;;;;;;24.74;46.18;94622.16;5015048;28;20495;-81
2023/05/22 07:34:33;;;;;;;5.07;4.67;;;;;;;24.42;46.30;94619.63;5015715;28;20868;-81
2023/05/22 07:37:00;;;;;;;7.70;5.43;;;;;;;24.12;46.21;94621.31;5015245;28;21024;-81
2023/05/22 07:39:27;;;;;;;7.57;4.83;;;;;;;23.56;46.45;94617.63;5015251;28;20949;-81
2023/05/22 07:41:54;;;;;;;11.43;5.97;;;;;;;23.27;48.57;94616.34;5015645;28;21126;-81
2023/05/22 07:44:21;;;;;;;6.93;5.57;;;;;;;23.08;50.77;94617.25;5015765;28;20849;-81
2023/05/22 07:46:47;;;;;;;7.03;5.10;;;;;;;22.37;52.45;94618.13;5015228;28;20933;-81
2023/05/22 07:49:19;;;;;;;5.63;4.90;;;;;;;22.29;53.41;94618.34;5015334;28;20448;-81
2023/05/22 07:51:46;;;;;;;8.97;6.00;;;;;;;22.38;54.46;94618.94;5015154;28;20540;-81
2023/05/22 07:54:13;;;;;;;10.00;5.60;;;;;;;22.51;54.12;94610.88;5015036;28;20442;-81
2023/05/22 07:56:41;;;;;;;15.57;5.40;;;;;;;22.56;54.06;94616.44;5014797;28;20481;-81
2023/05/22 07:59:09;;;;;;;9.80;6.17;;;;;;;22.56;54.67;94605.75;5014902;28;20458;-81
2023/05/22 08:01:37;;;;;;;8.37;5.57;;;;;;;22.71;54.73;94608.97;5014880;28;20458;-81
2023/05/22 08:04:04;;;;;;;14.00;5.93;;;;;;;22.66;53.06;94610.63;5014298;28;20482;-81
2023/05/22 08:06:33;;;;;;;9.43;5.50;;;;;;;22.85;54.40;94612.47;5014906;28;20445;-81
2023/05/22 08:09:01;;;;;;;6.37;4.57;;;;;;;22.85;52.27;94615.94;5014767;28;20457;-81
2023/05/22 08:11:28;;;;;;;7.17;5.00;;;;;;;23.16;52.80;94607.16;5014374;28;20444;-81
2023/05/22 08:13:54;;;;;;;9.20;6.20;;;;;;;23.43;51.80;94612.34;5014586;28;20571;-81
2023/05/22 08:16:21;;;;;;;6.93;5.40;;;;;;;23.78;51.58;94616.25;4996332;28;21003;-81
2023/05/22 08:18:48;;;;;;;6.07;5.50;;;;;;;24.14;51.83;94608.53;5014630;28;20445;-82
2023/05/22 08:21:15;;;;;;;7.60;4.27;;;;;;;24.09;50.06;94607.31;5014537;28;20450;-81
2023/05/22 08:23:43;;;;;;;6.43;4.73;;;;;;;23.86;48.98;94600.94;4995551;28;20482;-81
2023/05/22 08:26:10;;;;;;;7.87;4.57;;;;;;;24.04;49.89;94615.22;5014432;28;20501;-82
2023/05/22 08:28:40;;;;;;;17.20;5.00;;;;;;;23.83;47.76;94612.09;5014232;28;20799;-81
2023/05/22 08:31:07;;;;;;;4.40;4.00;;;;;;;23.08;46.36;94609.22;5014420;28;20442;-81
2023/05/22 08:33:34;;;;;;;6.70;4.17;;;;;;;23.20;45.80;94612.91;5013978;28;20486;-81
2023/05/22 08:36:01;;;;;;;5.20;3.80;;;;;;;23.08;46.97;94603.88;5014047;28;20449;-81
2023/05/22 08:38:27;;;;;;;15.47;4.77;;;;;;;22.72;49.33;94615.13;5014378;28;20449;-81
2023/05/22 08:40:57;;;;;;;5.23;4.73;;;;;;;22.83;49.69;94614.50;4995612;28;20440;-81
2023/05/22 08:43:25;;;;;;;8.60;4.80;;;;;;;22.94;48.64;94610.34;5013789;28;20449;-81
2023/05/22 08:45:58;;;;;;;10.30;4.10;;;;;;;23.11;47.46;94614.16;5014353;28;20452;-82
2023/05/22 08:48:29;;;;;;;5.53;4.10;;;;;;;23.38;45.84;94609.47;5013893;28;20465;-81
2023/05/22 08:50:58;;;;;;;9.07;3.73;;;;;;;23.91;47.22;94606.44;5014262;28;20450;-81
2023/05/22 08:53:28;;;;;;;8.50;3.90;;;;;;;23.84;42.85;94606.50;5013533;28;20517;-82
2023/05/22 08:55:57;;;;;;;3.83;3.50;;;;;;;23.75;44.08;94605.97;5014066;28;20503;-82
2023/05/22 08:58:24;;;;;;;6.53;2.87;;;;;;;23.40;41.07;94613.56;5013827;28;21008;-81
2023/05/22 09:00:53;;;;;;;7.57;2.90;;;;;;;22.68;42.22;94614.75;4995615;28;20464;-81
2023/05/22 09:03:20;;;;;;;4.33;3.93;;;;;;;22.85;43.27;94599.06;5013681;28;20461;-81
2023/05/22 09:05:48;;;;;;;9.27;4.00;;;;;;;23.06;46.14;94605.94;5013695;28;20436;-81
2023/05/22 09:08:15;;;;;;;6.47;4.13;;;;;;;23.44;46.34;94597.94;4995289;28;20456;-81
2023/05/22 09:10:42;;;;;;;4.80;4.00;;;;;;;23.08;44.71;94598.53;4978855;28;20516;-82
2023/05/22 09:13:10;;;;;;;9.13;3.80;;;;;;;22.82;45.21;94594.94;5013437;28;20490;-81
2023/05/22 09:15:37;;;;;;;5.80;3.90;;;;;;;23.22;45.04;94604.66;5012568;28;20447;-81
2023/05/22 09:18:06;;;;;;;8.43;4.13;;;;;;;23.38;45.64;94598.75;5013892;28;20445;-82
2023/05/22 09:20:34;;;;;;;10.20;4.00;;;;;;;23.57;43.57;94592.50;5013177;28;20503;-81
2023/05/22 09:23:02;;;;;;;5.33;3.63;;;;;;;23.80;43.46;94594.59;5013364;28;20482;-82
2023/05/22 09:25:30;;;;;;;6.60;4.13;;;;;;;23.44;42.84;94593.38;4994658;28;20447;-81
2023/05/22 09:27:57;;;;;;;4.50;4.10;;;;;;;23.01;45.17;94593.22;5013173;28;20829;-81
2023/05/22 09:30:25;;;;;;;4.73;4.33;;;;;;;22.72;44.79;94599.91;5013528;28;20787;-81
2023/05/22 09:32:52;;;;;;;8.63;4.07;;;;;;;22.61;45.78;94597.91;5012802;28;20484;-81
2023/05/22 09:35:20;;;;;;;11.00;3.90;;;;;;;22.64;45.63;94594.78;4994659;28;20449;-81
2023/05/22 09:37:56;;;;;;;8.70;4.07;;;;;;;22.47;44.33;94597.09;5089424;27;20507;-80
2023/05/22 09:40:23;;;;;;;8.63;4.07;;;;;;;21.98;45.22;94597.59;5089848;28;20541;-80
2023/05/22 09:42:49;;;;;;;4.63;3.70;;;;;;;21.62;46.04;94595.31;5089627;28;20447;-80
2023/05/22 09:45:20;;;;;;;4.43;3.83;;;;;;;21.56;45.82;94602.31;5053679;28;20443;-79
2023/05/22 09:47:49;;;;;;;6.83;3.57;;;;;;;21.59;47.92;94603.75;5089328;28;20453;-82
2023/05/22 09:50:16;;;;;;;7.50;4.00;;;;;;;21.78;48.45;94600.28;5089456;28;20478;-82
2023/05/22 09:52:45;;;;;;;5.40;4.00;;;;;;;21.64;47.72;94610.13;5088931;28;20894;-82
2023/05/22 09:55:14;;;;;;;12.33;4.00;;;;;;;21.66;47.16;94601.91;5089551;28;20847;-82
2023/05/22 09:57:43;;;;;;;7.40;3.87;;;;;;;21.79;49.35;94606.44;5089129;28;20486;-82
2023/05/22 10:00:14;;;;;;;5.80;4.17;;;;;;;21.90;46.95;94601.28;5089437;28;20531;-82
2023/05/22 10:02:45;;;;;;;7.97;3.67;;;;;;;22.07;46.93;94601.72;5089253;28;20930;-82
2023/05/22 10:05:14;;;;;;;12.33;5.30;;;;;;;21.88;47.12;94598.00;5088995;28;20438;-82
2023/05/22 10:07:48;;;;;;;5.50;3.40;;;;;;;22.09;46.44;94601.50;5088924;28;20999;-82
2023/05/22 10:10:20;;;;;;;9.00;4.20;;;;;;;22.27;47.35;94596.34;5089245;28;20437;-83
2023/05/22 10:12:52;;;;;;;4.93;4.43;;;;;;;22.31;46.09;94586.06;5088604;28;20814;-82
2023/05/22 10:15:19;;;;;;;8.00;4.03;;;;;;;;;;5088977;28;20446;-82
2023/05/22 10:17:47;;;;;;;7.80;3.80;;;;;;;22.44;46.03;94591.34;5088862;28;20489;-81
2023/05/22 10:20:15;;;;;;;6.47;3.90;;;;;;;22.39;47.73;94596.53;5088764;28;20442;-82
2023/05/22 10:22:43;;;;;;;3.97;3.67;;;;;;;22.07;46.12;94585.69;5088685;28;20982;-82
2023/05/22 10:25:10;;;;;;;9.37;4.43;;;;;;;22.29;47.92;94588.94;5088462;28;20506;-82
2023/05/22 10:27:39;;;;;;;6.73;4.20;;;;;;;22.26;46.69;94589.34;5088646;28;20626;-82
2023/05/22 10:30:26;;;;;;;6.53;4.43;;;;;;;22.04;47.79;94602.13;5088963;28;20462;-81
2023/05/22 10:32:58;;;;;;;6.23;4.63;;;;;;;21.79;53.91;94601.09;5088398;28;20451;-81
2023/05/22 10:35:32;;;;;;;7.23;4.30;;;;;;;21.40;56.23;94605.41;5088556;28;20491;-81
2023/05/22 10:38:16;;;;;;;7.03;5.57;;;;;;;21.14;62.48;94610.66;5088221;28;20513;-81
2023/05/22 10:40:46;;;;;;;10.47;5.60;;;;;;;20.97;67.48;94611.00;5088081;28;20857;-82
2023/05/22 10:43:14;;;;;;;8.80;6.00;;;;;;;20.69;68.59;94607.63;5088466;28;20450;-82
2023/05/22 10:45:41;;;;;;;9.13;5.90;;;;;;;20.73;69.89;94603.53;5088025;28;20924;-81
2023/05/22 10:48:10;;;;;;;6.37;5.70;;;;;;;20.81;71.40;94605.19;5062153;28;20525;-81
2023/05/22 10:50:37;;;;;;;9.33;5.23;;;;;;;20.95;71.09;94602.38;5074722;28;20446;-82
2023/05/22 10:53:22;;;;;;;7.53;5.43;;;;;;;21.12;67.22;94602.03;5039129;28;20441;-82
2023/05/22 10:55:49;;;;;;;9.37;5.13;;;;;;;21.19;64.19;94593.00;5074605;28;20448;-82
2023/05/22 10:58:18;;;;;;;6.57;5.40;;;;;;;21.41;63.61;94593.69;5074660;28;20446;-82
2023/05/22 11:00:45;;;;;;;9.83;5.10;;;;;;;21.51;64.41;94590.63;5074565;28;20452;-81
2023/05/22 11:03:12;;;;;;;11.07;6.57;;;;;;;21.64;65.38;94578.06;5074358;28;20453;-81
2023/05/22 11:05:39;;;;;;;7.33;5.97;;;;;;;21.69;63.49;94582.81;5074603;28;20458;-82
2023/05/22 11:08:35;;;;;;;13.30;7.30;;;;;;;21.64;64.26;94580.75;5074159;28;20482;-82
2023/05/22 11:11:11;;;;;;;11.57;6.33;;;;;;;21.57;65.00;94603.13;5074351;28;20484;-82
2023/05/22 11:13:40;;;;;;;10.77;5.30;;;;;;;21.10;61.83;94598.72;5074257;28;20443;-82
2023/05/22 11:16:08;;;;;;;7.33;5.10;;;;;;;20.64;63.20;94605.56;5074661;28;20474;-81
2023/05/22 11:18:35;;;;;;;7.77;5.13;;;;;;;20.37;62.27;94609.06;5074077;28;20445;-82
2023/05/22 11:21:03;;;;;;;8.67;4.37;;;;;;;19.74;62.52;94611.75;5074072;28;20484;-81
2023/05/22 11:23:34;;;;;;;6.47;4.30;;;;;;;19.45;61.96;94609.22;5074139;28;20452;-81
2023/05/22 11:26:23;;;;;;;9.20;3.00;;;;;;;18.84;57.47;94619.44;5074298;28;20540;-82
2023/05/22 11:28:52;;;;;;;5.00;2.80;;;;;;;18.54;60.46;94624.78;5039039;28;20463;-81
2023/05/22 11:31:22;;;;;;;5.17;3.00;;;;;;;18.21;63.34;94599.56;5073975;28;20479;-82
2023/05/22 11:33:49;;;;;;;5.03;3.43;;;;;;;17.92;66.55;94632.25;5073596;28;20477;-81
2023/05/22 11:36:17;;;;;;;5.10;4.00;;;;;;;17.68;70.44;94641.28;5073773;28;20571;-81
2023/05/22 11:38:44;;;;;;;4.50;3.63;;;;;;;17.35;72.40;94664.56;5073690;28;20933;-81